createdAt,value
2022-07-29T00:02:15.394Z,68.90
2022-07-29T00:04:42.121Z,69.50
2022-07-29T00:07:09.110Z,69.00
2022-07-29T00:09:50.350Z,68.90
2022-07-29T00:12:25.560Z,69.00
2022-07-29T00:14:54.788Z,68.90
2022-07-29T00:17:21.598Z,69.00
2022-07-29T00:19:48.299Z,69.10
2022-07-29T00:22:15.087Z,69.00
2022-07-29T00:24:41.856Z,69.10
2022-07-29T00:27:08.591Z,69.10
2022-07-29T00:29:35.514Z,69.40
2022-07-29T00:32:03.079Z,70.00
2022-07-29T00:34:48.575Z,69.40
2022-07-29T00:37:15.282Z,70.60
2022-07-29T00:39:42.060Z,69.30
2022-07-29T00:42:09.052Z,69.40
2022-07-29T00:44:39.511Z,69.40
2022-07-29T00:47:06.535Z,69.40
2022-07-29T00:49:33.714Z,69.40
2022-07-29T00:52:01.947Z,69.40
2022-07-29T00:54:28.867Z,69.40
2022-07-29T00:56:57.030Z,69.50
2022-07-29T00:59:23.708Z,69.50
2022-07-29T01:01:50.542Z,69.60
2022-07-29T01:04:17.766Z,69.40
2022-07-29T01:06:45.190Z,69.60
2022-07-29T01:09:12.222Z,70.20
2022-07-29T01:11:39.398Z,69.50
2022-07-29T01:14:07.456Z,69.50
2022-07-29T01:16:43.335Z,69.60
2022-07-29T01:19:28.607Z,69.50
2022-07-29T01:21:57.890Z,69.60
2022-07-29T01:24:43.149Z,69.50
2022-07-29T01:27:19.276Z,69.70
2022-07-29T01:29:51.832Z,69.60
2022-07-29T01:32:28.997Z,69.50
2022-07-29T01:35:03.018Z,69.70
2022-07-29T01:37:33.997Z,69.70
2022-07-29T01:40:02.941Z,69.50
2022-07-29T01:42:37.708Z,69.60
2022-07-29T01:45:04.521Z,69.60
2022-07-29T01:47:35.970Z,69.60
2022-07-29T01:50:06.229Z,69.60
2022-07-29T01:52:35.985Z,69.60
2022-07-29T01:55:05.566Z,69.40
2022-07-29T01:57:33.087Z,69.50
2022-07-29T02:00:01.253Z,69.60
2022-07-29T02:02:28.369Z,69.40
2022-07-29T02:04:55.645Z,69.40
2022-07-29T02:07:24.141Z,69.60
2022-07-29T02:09:51.483Z,69.30
2022-07-29T02:12:19.292Z,69.20
2022-07-29T02:14:48.491Z,70.30
2022-07-29T02:17:17.543Z,69.20
2022-07-29T02:19:45.082Z,69.20
2022-07-29T02:22:12.736Z,69.20
2022-07-29T02:24:39.569Z,70.50
2022-07-29T02:27:06.510Z,69.10
2022-07-29T02:29:33.644Z,69.10
2022-07-29T02:32:01.677Z,69.10
2022-07-29T02:34:29.214Z,69.80
2022-07-29T02:36:56.768Z,69.20
2022-07-29T02:39:25.404Z,69.40
2022-07-29T02:41:53.395Z,69.60
2022-07-29T02:44:22.633Z,70.90
2022-07-29T02:47:01.737Z,69.30
2022-07-29T02:49:39.653Z,69.30
2022-07-29T02:52:09.451Z,69.10
2022-07-29T02:55:05.555Z,69.10
2022-07-29T02:57:55.157Z,69.30
2022-07-29T03:00:24.746Z,69.00
2022-07-29T03:02:53.312Z,69.50
2022-07-29T03:05:21.136Z,70.60
2022-07-29T03:07:52.412Z,69.10
2022-07-29T03:10:19.192Z,69.00
2022-07-29T03:12:46.633Z,69.00
2022-07-29T03:15:13.659Z,69.20
2022-07-29T03:17:40.768Z,69.00
2022-07-29T03:20:08.847Z,69.10
2022-07-29T03:22:41.463Z,69.00
2022-07-29T03:25:08.753Z,69.00
2022-07-29T03:27:35.543Z,69.00
2022-07-29T03:30:02.312Z,69.60
2022-07-29T03:32:28.995Z,69.20
2022-07-29T03:34:56.778Z,69.00
2022-07-29T03:37:23.519Z,69.30
2022-07-29T03:39:50.677Z,69.10
2022-07-29T03:42:18.596Z,69.50
2022-07-29T03:44:46.719Z,70.00
2022-07-29T03:47:14.350Z,69.10
2022-07-29T03:49:41.849Z,70.40
2022-07-29T03:52:09.096Z,69.10
2022-07-29T03:54:35.892Z,70.70
2022-07-29T03:57:02.933Z,69.00
2022-07-29T03:59:31.502Z,69.00
2022-07-29T04:01:59.055Z,69.00
2022-07-29T04:04:26.111Z,69.10
2022-07-29T04:06:54.081Z,70.00
2022-07-29T04:09:20.808Z,69.00
2022-07-29T04:12:02.350Z,68.90
2022-07-29T04:14:30.736Z,70.00
2022-07-29T04:16:57.480Z,69.00
2022-07-29T04:19:24.181Z,69.00
2022-07-29T04:21:50.902Z,69.00
2022-07-29T04:24:18.350Z,68.80
2022-07-29T04:26:46.655Z,70.00
2022-07-29T04:29:15.208Z,69.00
2022-07-29T04:31:42.239Z,69.00
2022-07-29T04:34:10.280Z,68.80
2022-07-29T04:36:37.032Z,68.80
2022-07-29T04:39:04.120Z,70.00
2022-07-29T04:41:33.276Z,68.90
2022-07-29T04:44:02.269Z,68.80
2022-07-29T04:46:29.067Z,68.80
2022-07-29T04:48:56.114Z,68.80
2022-07-29T04:51:22.957Z,70.00
2022-07-29T04:53:49.727Z,68.90
2022-07-29T04:56:16.476Z,68.80
2022-07-29T04:58:43.188Z,68.90
2022-07-29T05:01:09.982Z,68.90
2022-07-29T05:03:36.740Z,68.80
2022-07-29T05:06:03.665Z,70.30
2022-07-29T05:08:30.407Z,69.60
2022-07-29T05:10:57.158Z,68.90
2022-07-29T05:13:23.841Z,69.40
2022-07-29T05:15:50.740Z,68.90
2022-07-29T05:18:17.479Z,68.90
2022-07-29T05:20:44.340Z,68.90
2022-07-29T05:23:13.720Z,70.10
2022-07-29T05:25:43.207Z,69.00
2022-07-29T05:28:11.603Z,70.10
2022-07-29T05:30:38.313Z,69.00
2022-07-29T05:33:05.106Z,71.00
2022-07-29T05:35:31.820Z,68.80
2022-07-29T05:37:58.556Z,70.30
2022-07-29T05:40:25.487Z,68.90
2022-07-29T05:42:52.324Z,69.00
2022-07-29T05:45:19.132Z,69.00
2022-07-29T05:47:46.600Z,68.90
2022-07-29T05:50:13.465Z,69.40
2022-07-29T05:52:40.233Z,68.90
2022-07-29T05:55:07.072Z,69.00
2022-07-29T05:57:34.037Z,69.10
2022-07-29T06:00:00.833Z,69.10
2022-07-29T06:02:27.583Z,70.20
2022-07-29T06:04:54.812Z,69.20
2022-07-29T06:07:21.766Z,70.10
2022-07-29T06:09:48.531Z,70.10
2022-07-29T06:12:15.507Z,68.90
2022-07-29T06:14:42.293Z,68.90
2022-07-29T06:17:09.158Z,69.00
2022-07-29T06:19:36.454Z,69.00
2022-07-29T06:22:03.417Z,68.90
2022-07-29T06:24:30.116Z,69.00
2022-07-29T06:26:57.034Z,70.40
2022-07-29T06:29:23.825Z,68.80
2022-07-29T06:31:50.508Z,68.70
2022-07-29T06:34:17.510Z,68.60
2022-07-29T06:36:44.616Z,68.60
2022-07-29T06:39:13.020Z,69.70
2022-07-29T06:41:39.873Z,68.70
2022-07-29T06:44:06.656Z,68.90
2022-07-29T06:46:33.749Z,68.70
2022-07-29T06:49:02.657Z,68.60
2022-07-29T06:51:29.883Z,68.60
2022-07-29T06:54:02.197Z,68.30
2022-07-29T06:56:31.541Z,68.40
2022-07-29T06:58:58.396Z,68.30
2022-07-29T07:01:25.150Z,68.30
2022-07-29T07:03:51.824Z,68.20
2022-07-29T07:06:18.513Z,68.30
2022-07-29T07:08:45.295Z,68.20
2022-07-29T07:11:12.313Z,68.50
2022-07-29T07:13:39.021Z,68.20
2022-07-29T07:16:05.738Z,68.20
2022-07-29T07:18:32.913Z,68.20
2022-07-29T07:20:59.734Z,68.50
2022-07-29T07:23:26.441Z,68.30
2022-07-29T07:25:53.292Z,68.20
2022-07-29T07:28:25.036Z,68.20
2022-07-29T07:30:52.659Z,67.90
2022-07-29T07:33:19.409Z,67.90
2022-07-29T07:35:46.283Z,67.80
2022-07-29T07:38:12.984Z,67.10
2022-07-29T07:40:39.719Z,66.90
2022-07-29T07:43:06.455Z,66.80
2022-07-29T07:45:38.273Z,67.70
2022-07-29T07:48:05.487Z,67.70
2022-07-29T07:50:32.208Z,67.00
2022-07-29T07:52:59.101Z,67.30
2022-07-29T07:55:26.587Z,67.70
2022-07-29T07:57:53.466Z,68.00
2022-07-29T08:00:23.028Z,68.70
2022-07-29T08:02:51.208Z,68.20
2022-07-29T08:05:18.616Z,68.10
2022-07-29T08:07:46.827Z,67.40
2022-07-29T08:10:14.631Z,67.20
2022-07-29T08:12:42.702Z,67.70
2022-07-29T08:15:09.809Z,67.50
2022-07-29T08:17:36.528Z,67.50
2022-07-29T08:20:03.721Z,66.90
2022-07-29T08:22:30.462Z,67.50
2022-07-29T08:24:57.223Z,67.00
2022-07-29T08:27:42.507Z,67.20
2022-07-29T08:30:11.296Z,67.60
2022-07-29T08:32:53.345Z,67.50
2022-07-29T08:35:22.231Z,67.40
2022-07-29T08:37:49.119Z,66.60
2022-07-29T08:40:15.972Z,67.30
2022-07-29T08:42:42.964Z,67.80
2022-07-29T08:45:10.106Z,67.80
2022-07-29T08:47:40.845Z,67.50
2022-07-29T08:50:08.402Z,67.60
2022-07-29T08:52:38.285Z,66.90
2022-07-29T08:55:08.923Z,66.20
2022-07-29T08:57:37.136Z,66.30
2022-07-29T09:00:11.562Z,67.10
2022-07-29T09:02:46.755Z,67.80
2022-07-29T09:05:14.395Z,68.20
2022-07-29T09:07:44.123Z,68.60
2022-07-29T09:10:11.131Z,68.60
2022-07-29T09:12:38.359Z,68.40
2022-07-29T09:15:05.513Z,69.10
2022-07-29T09:17:45.601Z,69.40
2022-07-29T09:20:19.234Z,69.80
2022-07-29T09:22:50.113Z,70.40
2022-07-29T09:25:35.583Z,69.80
2022-07-29T09:28:12.283Z,71.60
2022-07-29T09:31:06.512Z,71.40
2022-07-29T09:33:40.263Z,73.10
2022-07-29T09:36:08.566Z,73.30
2022-07-29T09:38:40.524Z,72.90
2022-07-29T09:41:09.066Z,72.80
2022-07-29T09:43:35.851Z,72.10
2022-07-29T09:46:12.997Z,71.40
2022-07-29T09:48:39.852Z,71.40
2022-07-29T09:51:07.483Z,71.00
2022-07-29T09:53:38.689Z,70.70
2022-07-29T09:56:05.806Z,71.30
2022-07-29T09:58:34.667Z,71.60
2022-07-29T10:01:01.472Z,70.90
2022-07-29T10:03:28.364Z,70.50
2022-07-29T10:06:11.546Z,70.10
2022-07-29T10:08:38.342Z,69.30
2022-07-29T10:11:11.486Z,69.10
2022-07-29T10:13:38.860Z,68.60
2022-07-29T10:16:05.653Z,68.50
2022-07-29T10:18:33.184Z,68.00
2022-07-29T10:21:02.294Z,68.10
2022-07-29T10:23:46.303Z,67.90
2022-07-29T10:26:15.621Z,67.40
2022-07-29T10:28:42.373Z,67.80
2022-07-29T10:31:15.805Z,67.30
2022-07-29T10:33:42.574Z,67.00
2022-07-29T10:36:43.399Z,68.00
2022-07-29T10:39:41.927Z,68.30
2022-07-29T10:42:29.640Z,68.40
2022-07-29T10:45:01.713Z,67.20
2022-07-29T10:47:28.694Z,66.90
2022-07-29T10:49:59.585Z,67.20
2022-07-29T10:52:58.512Z,66.60
2022-07-29T10:55:43.409Z,67.10
2022-07-29T10:58:14.704Z,66.90
2022-07-29T11:00:41.513Z,67.50
2022-07-29T11:03:32.307Z,67.40
2022-07-29T11:06:00.190Z,66.80
2022-07-29T11:08:28.085Z,67.10
2022-07-29T11:11:15.864Z,67.20
2022-07-29T11:13:44.166Z,67.30
2022-07-29T11:16:11.379Z,66.90
2022-07-29T11:18:58.105Z,67.20
2022-07-29T11:21:54.743Z,67.40
2022-07-29T11:24:32.113Z,67.50
2022-07-29T11:27:08.523Z,67.00
2022-07-29T11:29:39.987Z,66.80
2022-07-29T11:32:10.933Z,66.70
2022-07-29T11:34:45.218Z,66.80
2022-07-29T11:37:14.861Z,67.30
2022-07-29T11:39:45.005Z,67.70
2022-07-29T11:42:32.681Z,67.70
2022-07-29T11:45:42.082Z,67.80
2022-07-29T11:47:55.305Z,67.90
2022-07-29T11:50:33.307Z,67.30
2022-07-29T11:53:02.476Z,67.60
2022-07-29T11:55:37.534Z,67.70
2022-07-29T11:58:22.194Z,67.90
2022-07-29T12:00:52.657Z,67.70
2022-07-29T12:03:33.581Z,67.80
2022-07-29T12:06:04.128Z,68.20
2022-07-29T12:08:30.856Z,67.20
2022-07-29T12:10:57.703Z,68.00
2022-07-29T12:13:37.157Z,68.40
2022-07-29T12:16:04.794Z,68.60
2022-07-29T12:18:32.189Z,68.20
2022-07-29T12:21:03.590Z,68.10
2022-07-29T12:23:34.523Z,68.70
2022-07-29T12:26:05.282Z,68.80
2022-07-29T12:28:38.335Z,68.80
2022-07-29T12:31:05.566Z,68.50
2022-07-29T12:33:32.496Z,67.60
2022-07-29T12:36:06.801Z,68.10
2022-07-29T12:38:37.312Z,68.60
2022-07-29T12:41:04.949Z,68.60
2022-07-29T12:43:32.271Z,68.60
2022-07-29T12:45:58.988Z,67.60
2022-07-29T12:48:35.954Z,67.80
2022-07-29T12:51:03.952Z,67.70
2022-07-29T12:53:30.698Z,68.00
2022-07-29T12:55:58.364Z,68.90
2022-07-29T12:58:41.963Z,67.80
2022-07-29T13:01:17.087Z,67.40
2022-07-29T13:03:44.289Z,67.30
2022-07-29T13:06:31.728Z,68.10
2022-07-29T13:08:59.662Z,68.60
2022-07-29T13:11:30.275Z,68.70
2022-07-29T13:14:05.729Z,69.00
2022-07-29T13:16:33.922Z,68.80
2022-07-29T13:19:08.099Z,68.00
2022-07-29T13:21:34.947Z,68.20
2022-07-29T13:24:01.730Z,68.00
2022-07-29T13:26:28.916Z,67.60
2022-07-29T13:28:55.930Z,67.50
2022-07-29T13:31:23.133Z,68.20
2022-07-29T13:33:50.075Z,67.80
2022-07-29T13:36:16.731Z,67.90
2022-07-29T13:38:43.437Z,68.40
2022-07-29T13:41:10.927Z,68.90
2022-07-29T13:43:37.631Z,68.90
2022-07-29T13:46:04.311Z,68.50
2022-07-29T13:48:31.036Z,68.30
2022-07-29T13:50:57.918Z,68.50
2022-07-29T13:53:26.931Z,68.40
2022-07-29T13:55:54.248Z,69.00
2022-07-29T13:58:20.939Z,69.00
2022-07-29T14:00:47.763Z,68.70
2022-07-29T14:03:14.466Z,68.50
2022-07-29T14:05:41.124Z,68.20
2022-07-29T14:08:07.855Z,68.80
2022-07-29T14:10:34.504Z,69.50
2022-07-29T14:13:01.166Z,68.70
2022-07-29T14:15:27.861Z,67.20
2022-07-29T14:17:54.616Z,66.80
2022-07-29T14:20:21.312Z,65.50
2022-07-29T14:22:48.146Z,65.70
2022-07-29T14:25:15.723Z,66.00
2022-07-29T14:27:43.865Z,65.90
2022-07-29T14:30:11.078Z,66.20
2022-07-29T14:32:37.776Z,66.10
2022-07-29T14:35:05.006Z,66.90
2022-07-29T14:37:39.071Z,67.40
2022-07-29T14:40:07.527Z,67.90
2022-07-29T14:42:34.233Z,67.40
2022-07-29T14:45:01.144Z,66.90
2022-07-29T14:47:27.913Z,67.60
2022-07-29T14:49:54.572Z,68.00
2022-07-29T14:52:21.275Z,67.90
2022-07-29T14:54:48.075Z,68.30
2022-07-29T14:57:14.733Z,67.80
2022-07-29T14:59:41.419Z,68.30
2022-07-29T15:02:08.144Z,68.50
2022-07-29T15:04:35.498Z,68.60
2022-07-29T15:07:02.958Z,68.50
2022-07-29T15:09:29.701Z,68.10
2022-07-29T15:11:56.772Z,67.80
2022-07-29T15:14:23.931Z,68.30
2022-07-29T15:16:52.731Z,68.40
2022-07-29T15:19:20.130Z,69.30
2022-07-29T15:21:48.730Z,69.40
2022-07-29T15:24:16.416Z,69.00
2022-07-29T15:26:44.038Z,68.60
2022-07-29T15:29:10.690Z,68.80
2022-07-29T15:31:37.544Z,68.80
2022-07-29T15:34:06.151Z,69.00
2022-07-29T15:36:51.430Z,68.60
2022-07-29T15:39:19.205Z,68.70
2022-07-29T15:41:45.883Z,68.70
2022-07-29T15:44:12.554Z,68.30
2022-07-29T15:46:57.966Z,67.70
2022-07-29T15:49:31.431Z,68.70
2022-07-29T15:52:16.565Z,68.80
2022-07-29T15:54:43.352Z,68.40
2022-07-29T15:57:10.164Z,68.60
2022-07-29T15:59:36.829Z,68.40
2022-07-29T16:02:04.172Z,68.40
2022-07-29T16:04:31.997Z,69.30
2022-07-29T16:06:59.285Z,69.50
2022-07-29T16:09:26.452Z,69.20
2022-07-29T16:11:54.082Z,69.20
2022-07-29T16:14:21.040Z,69.30
2022-07-29T16:16:47.861Z,67.80
2022-07-29T16:19:14.640Z,68.80
2022-07-29T16:21:41.352Z,69.20
2022-07-29T16:24:08.275Z,69.10
2022-07-29T16:26:35.324Z,68.40
2022-07-29T16:29:02.034Z,68.50
2022-07-29T16:31:29.055Z,69.10
2022-07-29T16:33:56.173Z,69.30
2022-07-29T16:36:23.167Z,68.60
2022-07-29T16:38:49.849Z,68.80
2022-07-29T16:41:16.586Z,69.20
2022-07-29T16:43:43.312Z,69.60
2022-07-29T16:46:15.617Z,70.00
2022-07-29T16:48:45.880Z,69.70
2022-07-29T16:51:14.383Z,69.50
2022-07-29T16:53:43.715Z,69.40
2022-07-29T16:56:12.799Z,69.80
2022-07-29T16:58:43.615Z,70.20
2022-07-29T17:01:11.382Z,70.10
2022-07-29T17:04:00.158Z,69.50
2022-07-29T17:06:28.660Z,69.40
2022-07-29T17:08:56.563Z,69.00
2022-07-29T17:11:51.539Z,68.90
2022-07-29T17:14:10.362Z,69.80
2022-07-29T17:16:37.121Z,70.00
2022-07-29T17:19:04.182Z,70.20
2022-07-29T17:21:30.857Z,70.30
2022-07-29T17:23:59.375Z,70.40
2022-07-29T17:26:28.026Z,70.70
2022-07-29T17:28:55.410Z,70.80
2022-07-29T17:31:22.530Z,70.60
2022-07-29T17:33:49.252Z,70.70
2022-07-29T17:36:25.197Z,70.60
2022-07-29T17:38:52.839Z,70.20
2022-07-29T17:41:20.095Z,70.30
2022-07-29T17:43:46.822Z,70.50
2022-07-29T17:46:13.630Z,70.60
2022-07-29T17:48:41.134Z,70.50
2022-07-29T17:51:07.963Z,70.50
2022-07-29T17:53:34.687Z,70.70
2022-07-29T17:56:01.789Z,70.70
2022-07-29T17:58:28.510Z,70.50
2022-07-29T18:00:55.275Z,70.70
2022-07-29T18:03:22.122Z,70.90
2022-07-29T18:05:49.495Z,70.90
2022-07-29T18:08:17.014Z,71.70
2022-07-29T18:10:44.722Z,71.20
2022-07-29T18:13:12.844Z,71.30
2022-07-29T18:15:40.306Z,71.30
2022-07-29T18:18:06.982Z,71.40
2022-07-29T18:20:33.922Z,72.10
2022-07-29T18:23:01.329Z,71.10
2022-07-29T18:25:28.984Z,71.70
2022-07-29T18:28:00.004Z,71.50
2022-07-29T18:30:27.563Z,71.70
2022-07-29T18:33:19.163Z,71.60
2022-07-29T18:35:40.990Z,71.60
2022-07-29T18:38:07.702Z,71.40
2022-07-29T18:40:34.539Z,71.70
2022-07-29T18:43:01.334Z,71.30
2022-07-29T18:45:28.779Z,71.60
2022-07-29T18:47:56.425Z,71.60
2022-07-29T18:50:28.837Z,71.70
2022-07-29T18:52:58.429Z,71.70
2022-07-29T18:55:25.727Z,71.70
2022-07-29T18:57:55.912Z,71.10
2022-07-29T19:00:24.146Z,70.60
2022-07-29T19:02:51.206Z,71.40
2022-07-29T19:05:18.322Z,71.50
2022-07-29T19:07:45.046Z,71.50
2022-07-29T19:10:12.306Z,71.10
2022-07-29T19:12:39.234Z,71.20
2022-07-29T19:15:07.583Z,71.10
2022-07-29T19:17:34.296Z,71.30
2022-07-29T19:20:02.011Z,71.50
2022-07-29T19:22:28.707Z,71.70
2022-07-29T19:24:55.395Z,71.00
2022-07-29T19:27:22.097Z,70.70
2022-07-29T19:29:48.842Z,71.40
2022-07-29T19:32:24.941Z,71.40
2022-07-29T19:35:10.991Z,71.40
2022-07-29T19:37:38.622Z,71.40
2022-07-29T19:40:06.032Z,70.90
2022-07-29T19:42:32.705Z,69.00
2022-07-29T19:44:59.377Z,68.40
2022-07-29T19:47:26.027Z,69.10
2022-07-29T19:49:52.677Z,68.00
2022-07-29T19:52:19.355Z,68.40
2022-07-29T19:54:46.009Z,68.30
2022-07-29T19:57:12.696Z,68.20
2022-07-29T19:59:40.955Z,68.40
2022-07-29T20:02:10.735Z,68.40
2022-07-29T20:04:38.681Z,68.20
2022-07-29T20:07:05.588Z,68.30
2022-07-29T20:09:32.308Z,68.00
2022-07-29T20:11:59.114Z,68.00
2022-07-29T20:14:25.981Z,68.00
2022-07-29T20:16:54.418Z,68.10
2022-07-29T20:19:22.980Z,68.10
2022-07-29T20:21:51.380Z,67.70
2022-07-29T20:24:18.797Z,67.80
2022-07-29T20:26:45.474Z,68.20
2022-07-29T20:29:12.127Z,68.10
2022-07-29T20:31:38.786Z,68.00
2022-07-29T20:34:05.624Z,68.50
2022-07-29T20:36:32.299Z,68.30
2022-07-29T20:39:00.059Z,68.50
2022-07-29T20:41:27.043Z,68.20
2022-07-29T20:43:53.756Z,68.00
2022-07-29T20:46:20.476Z,68.10
2022-07-29T20:48:47.352Z,68.60
2022-07-29T20:51:14.595Z,68.40
2022-07-29T20:53:41.728Z,68.20
2022-07-29T20:56:08.601Z,68.50
2022-07-29T20:58:36.397Z,68.20
2022-07-29T21:01:03.764Z,68.50
2022-07-29T21:03:30.592Z,68.30
2022-07-29T21:05:57.335Z,68.20
2022-07-29T21:08:24.165Z,68.00
2022-07-29T21:10:50.954Z,67.60
2022-07-29T21:13:18.741Z,67.80
2022-07-29T21:15:49.271Z,68.40
2022-07-29T21:18:27.459Z,68.10
2022-07-29T21:20:54.919Z,67.90
2022-07-29T21:23:21.643Z,68.00
2022-07-29T21:25:48.355Z,68.10
2022-07-29T21:28:27.261Z,68.40
2022-07-29T21:30:54.838Z,68.70
2022-07-29T21:33:21.711Z,68.60
2022-07-29T21:36:26.603Z,68.50
2022-07-29T21:38:35.511Z,68.60
2022-07-29T21:41:03.105Z,68.70
2022-07-29T21:43:29.900Z,68.90
2022-07-29T21:45:57.137Z,68.90
2022-07-29T21:48:24.703Z,69.00
2022-07-29T21:50:51.830Z,69.00
2022-07-29T21:53:21.987Z,69.00
2022-07-29T21:55:54.308Z,69.10
2022-07-29T21:58:22.947Z,69.30
2022-07-29T22:00:49.773Z,69.30
2022-07-29T22:03:16.607Z,69.30
2022-07-29T22:05:43.491Z,69.40
2022-07-29T22:08:10.178Z,69.60
2022-07-29T22:10:37.261Z,69.50
2022-07-29T22:13:04.093Z,69.50
2022-07-29T22:15:31.214Z,69.40
2022-07-29T22:17:58.404Z,69.40
2022-07-29T22:20:25.493Z,69.30
2022-07-29T22:22:52.167Z,69.30
2022-07-29T22:25:18.954Z,69.40
2022-07-29T22:27:45.853Z,69.10
2022-07-29T22:30:12.702Z,69.10
2022-07-29T22:32:39.411Z,69.20
2022-07-29T22:35:06.232Z,69.30
2022-07-29T22:37:33.000Z,69.30
2022-07-29T22:39:59.677Z,69.50
2022-07-29T22:42:26.461Z,69.60
2022-07-29T22:44:53.173Z,69.60
2022-07-29T22:47:46.467Z,69.50
2022-07-29T22:50:06.856Z,69.60
2022-07-29T22:52:33.477Z,69.60
2022-07-29T22:55:00.121Z,69.50
2022-07-29T22:57:26.914Z,69.60
2022-07-29T22:59:53.650Z,69.60
2022-07-29T23:02:20.340Z,69.60
2022-07-29T23:04:47.012Z,69.60
2022-07-29T23:07:13.735Z,69.60
2022-07-29T23:09:40.462Z,69.80
2022-07-29T23:12:07.307Z,69.60
2022-07-29T23:14:34.013Z,70.30
2022-07-29T23:17:00.912Z,69.50
2022-07-29T23:19:27.710Z,69.80
2022-07-29T23:21:54.391Z,69.80
2022-07-29T23:24:21.136Z,69.80
2022-07-29T23:26:47.814Z,69.70
2022-07-29T23:29:14.639Z,69.60
2022-07-29T23:31:42.641Z,69.60
2022-07-29T23:34:14.921Z,69.60
2022-07-29T23:36:42.409Z,69.60
2022-07-29T23:39:13.214Z,70.10
2022-07-29T23:41:40.009Z,69.40
2022-07-29T23:44:06.746Z,69.60
2022-07-29T23:46:33.597Z,69.60
2022-07-29T23:49:00.446Z,69.80
2022-07-29T23:51:29.105Z,69.60
2022-07-29T23:53:56.129Z,69.60
2022-07-29T23:56:23.091Z,69.60
2022-07-29T23:58:50.135Z,69.60
